createdAt,value
2023-01-06T09:02:14.728Z,99112.00
2023-01-06T09:04:55.254Z,99118.00
2023-01-06T09:07:22.594Z,99114.00
2023-01-06T09:09:49.970Z,99116.00
2023-01-06T09:12:17.353Z,99118.00
2023-01-06T09:14:44.755Z,99126.00
2023-01-06T09:17:12.145Z,99125.00
2023-01-06T09:19:39.505Z,99127.00
2023-01-06T09:22:07.274Z,99131.00
2023-01-06T09:24:34.673Z,99128.00
2023-01-06T09:27:02.058Z,99135.00
2023-01-06T09:29:29.445Z,99131.00
2023-01-06T09:31:56.778Z,99137.00
2023-01-06T09:34:24.160Z,99147.00
2023-01-06T09:36:51.491Z,99131.00
2023-01-06T09:39:20.120Z,99152.00
2023-01-06T09:42:36.895Z,99159.00
2023-01-06T09:45:18.261Z,99148.00
2023-01-06T09:47:56.194Z,99161.00
2023-01-06T09:50:43.973Z,99156.00
2023-01-06T09:53:30.583Z,99166.00
2023-01-06T09:56:03.095Z,99167.00
2023-01-06T09:59:10.670Z,99166.00
2023-01-06T10:01:48.758Z,99171.00
2023-01-06T10:04:30.962Z,99173.00
2023-01-06T10:08:21.518Z,99172.00
2023-01-06T10:11:59.588Z,99162.00
2023-01-06T10:15:06.617Z,99157.00
2023-01-06T10:18:41.518Z,99159.00
2023-01-06T10:22:05.611Z,99156.00
2023-01-06T10:25:02.881Z,99152.00
2023-01-06T10:27:58.504Z,99157.00
2023-01-06T10:30:45.752Z,99150.00
2023-01-06T10:33:37.476Z,99152.00
2023-01-06T10:36:17.186Z,99149.00
2023-01-06T10:38:55.685Z,99151.00
2023-01-06T10:41:45.744Z,99144.00
2023-01-06T10:44:14.075Z,99136.00
2023-01-06T10:46:45.266Z,99144.00
2023-01-06T10:49:19.401Z,99155.00
2023-01-06T10:52:00.641Z,99151.00
2023-01-06T10:54:34.200Z,99149.00
2023-01-06T10:57:17.964Z,99149.00
2023-01-06T11:00:17.415Z,99141.00
2023-01-06T11:03:14.284Z,99131.00
2023-01-06T11:05:47.312Z,99126.00
2023-01-06T11:08:17.007Z,99131.00
2023-01-06T11:10:56.323Z,99121.00
2023-01-06T11:13:37.089Z,99126.00
2023-01-06T11:16:36.952Z,99123.00
2023-01-06T11:19:21.536Z,99117.00
2023-01-06T11:21:49.076Z,99111.00
2023-01-06T11:24:26.989Z,99114.00
2023-01-06T11:27:16.190Z,99112.00
2023-01-06T11:29:43.633Z,99100.00
2023-01-06T11:32:28.625Z,99099.00
2023-01-06T11:35:06.521Z,99096.00
2023-01-06T11:37:43.389Z,99106.00
2023-01-06T11:40:34.216Z,99090.00
2023-01-06T11:43:32.652Z,99088.00
2023-01-06T11:46:09.232Z,99091.00
2023-01-06T11:49:04.003Z,99082.00
2023-01-06T11:51:48.959Z,99077.00
2023-01-06T11:54:40.536Z,99075.00
2023-01-06T11:57:55.970Z,99059.00
2023-01-06T12:01:08.231Z,99064.00
2023-01-06T12:03:44.977Z,99057.00
2023-01-06T12:06:34.568Z,99033.00
2023-01-06T12:09:40.718Z,99040.00
2023-01-06T12:12:15.834Z,99044.00
2023-01-06T12:14:43.223Z,99036.00
2023-01-06T12:17:36.051Z,99034.00
2023-01-06T12:20:33.442Z,99030.00
2023-01-06T12:23:39.834Z,99031.00
2023-01-06T12:26:25.254Z,99038.00
2023-01-06T12:28:56.273Z,99031.00
2023-01-06T12:32:05.459Z,99033.00
2023-01-06T12:34:50.325Z,99031.00
2023-01-06T12:37:53.586Z,99024.00
2023-01-06T12:40:52.632Z,99030.00
2023-01-06T12:43:24.776Z,99032.00
2023-01-06T12:46:04.932Z,99034.00
2023-01-06T12:48:59.332Z,99023.00
2023-01-06T12:51:54.556Z,99021.00
2023-01-06T12:54:36.498Z,99018.00
2023-01-06T12:58:06.362Z,99015.00
2023-01-06T13:01:01.544Z,99008.00
2023-01-06T13:04:21.184Z,99012.00
2023-01-06T13:08:28.412Z,99008.00
2023-01-06T13:11:40.250Z,99007.00
2023-01-06T13:15:11.817Z,98995.00
2023-01-06T13:18:15.204Z,98999.00
2023-01-06T13:21:00.624Z,98998.00
2023-01-06T13:23:57.124Z,98993.00
2023-01-06T13:27:18.902Z,98988.00
2023-01-06T13:30:36.191Z,98987.00
2023-01-06T13:33:23.582Z,98991.00
2023-01-06T13:36:35.096Z,98994.00
2023-01-06T13:39:30.713Z,98994.00
2023-01-06T13:42:03.981Z,98992.00
2023-01-06T13:44:37.387Z,98980.00
2023-01-06T13:47:24.471Z,98978.00
2023-01-06T13:49:53.033Z,98983.00
2023-01-06T13:52:28.915Z,98975.00
2023-01-06T13:55:32.729Z,98979.00
2023-01-06T13:58:25.764Z,98983.00
2023-01-06T14:01:20.792Z,98977.00
2023-01-06T14:03:51.576Z,98974.00
2023-01-06T14:06:24.967Z,98980.00
2023-01-06T14:08:58.574Z,98978.00
2023-01-06T14:11:38.849Z,98978.00
2023-01-06T14:14:32.885Z,98974.00
2023-01-06T14:17:00.455Z,98974.00
2023-01-06T14:19:37.986Z,98973.00
2023-01-06T14:22:26.236Z,98980.00
2023-01-06T14:25:08.647Z,98971.00
2023-01-06T14:27:48.054Z,98980.00
2023-01-06T14:30:33.758Z,98980.00
2023-01-06T14:33:38.225Z,98976.00
2023-01-06T14:36:17.539Z,98974.00
2023-01-06T14:39:02.402Z,98971.00
2023-01-06T14:41:45.556Z,98976.00
2023-01-06T14:44:44.225Z,98963.00
2023-01-06T14:47:42.671Z,98958.00
2023-01-06T14:50:47.467Z,98982.00
2023-01-06T14:53:38.875Z,98970.00
2023-01-06T14:56:11.363Z,98972.00
2023-01-06T14:58:38.735Z,98981.00
2023-01-06T15:01:30.876Z,98978.00
2023-01-06T15:04:03.169Z,98981.00
2023-01-06T15:06:32.349Z,98978.00
2023-01-06T15:09:21.047Z,98978.00
2023-01-06T15:11:49.351Z,98975.00
2023-01-06T15:14:35.291Z,98983.00
2023-01-06T15:17:06.796Z,98983.00
2023-01-06T15:19:35.745Z,98980.00
2023-01-06T15:22:08.750Z,98986.00
2023-01-06T15:24:42.894Z,98978.00
2023-01-06T15:27:16.560Z,98979.00
2023-01-06T15:29:57.251Z,98989.00
2023-01-06T15:32:28.107Z,98989.00
2023-01-06T15:34:58.107Z,98982.00
2023-01-06T15:37:34.750Z,98982.00
2023-01-06T15:40:05.212Z,98984.00
2023-01-06T15:42:33.037Z,98980.00
2023-01-06T15:45:06.746Z,98980.00
2023-01-06T15:47:45.813Z,98989.00
2023-01-06T15:50:34.200Z,98988.00
2023-01-06T15:53:15.960Z,98989.00
2023-01-06T15:55:49.081Z,98991.00
2023-01-06T15:58:30.507Z,98999.00
2023-01-06T16:01:12.014Z,98991.00
2023-01-06T16:03:40.100Z,98994.00
2023-01-06T16:06:15.460Z,98994.00
2023-01-06T16:08:44.189Z,98998.00
2023-01-06T16:11:17.339Z,99008.00
2023-01-06T16:13:59.036Z,98997.00
2023-01-06T16:16:37.922Z,99006.00
2023-01-06T16:19:28.145Z,99004.00
